sensor_id;sensor_type;location;lat;lon;timestamp;temperature;humidity
21672;DHT22;10997;52.242;8.168;2022-10-22T00:04:26;13.10;99.90
21672;DHT22;10997;52.242;8.168;2022-10-22T00:09:27;12.90;99.90
21672;DHT22;10997;52.242;8.168;2022-10-22T00:14:29;12.90;99.90
21672;DHT22;10997;52.242;8.168;2022-10-22T00:19:29;12.90;99.90
21672;DHT22;10997;52.242;8.168;2022-10-22T00:24:31;12.90;99.90
21672;DHT22;10997;52.242;8.168;2022-10-22T00:29:32;12.90;99.90
21672;DHT22;10997;52.242;8.168;2022-10-22T00:34:33;12.90;99.90
21672;DHT22;10997;52.242;8.168;2022-10-22T00:39:34;13.00;99.90
21672;DHT22;10997;52.242;8.168;2022-10-22T00:50:16;13.00;99.90
21672;DHT22;10997;52.242;8.168;2022-10-22T00:55:19;13.00;99.90
21672;DHT22;10997;52.242;8.168;2022-10-22T01:00:20;13.00;99.90
21672;DHT22;10997;52.242;8.168;2022-10-22T01:05:22;13.00;99.90
21672;DHT22;10997;52.242;8.168;2022-10-22T01:11:00;13.00;99.90
21672;DHT22;10997;52.242;8.168;2022-10-22T01:21:44;13.00;99.90
21672;DHT22;10997;52.242;8.168;2022-10-22T01:32:13;13.00;99.90
21672;DHT22;10997;52.242;8.168;2022-10-22T01:37:16;13.10;99.90
21672;DHT22;10997;52.242;8.168;2022-10-22T01:42:18;13.10;99.90
21672;DHT22;10997;52.242;8.168;2022-10-22T01:53:21;13.00;99.90
21672;DHT22;10997;52.242;8.168;2022-10-22T02:03:40;12.90;99.90
21672;DHT22;10997;52.242;8.168;2022-10-22T02:08:45;12.80;99.90
21672;DHT22;10997;52.242;8.168;2022-10-22T02:13:50;12.80;99.90
21672;DHT22;10997;52.242;8.168;2022-10-22T02:18:54;12.70;99.90
21672;DHT22;10997;52.242;8.168;2022-10-22T02:23:57;12.60;99.90
21672;DHT22;10997;52.242;8.168;2022-10-22T02:29:19;12.50;99.90
21672;DHT22;10997;52.242;8.168;2022-10-22T02:34:24;12.60;99.90
21672;DHT22;10997;52.242;8.168;2022-10-22T02:39:27;12.60;99.90
21672;DHT22;10997;52.242;8.168;2022-10-22T02:44:29;12.50;99.90
21672;DHT22;10997;52.242;8.168;2022-10-22T02:49:29;12.40;99.90
21672;DHT22;10997;52.242;8.168;2022-10-22T02:54:30;12.40;99.90
21672;DHT22;10997;52.242;8.168;2022-10-22T02:59:31;12.40;99.90
21672;DHT22;10997;52.242;8.168;2022-10-22T03:04:31;12.20;99.90
21672;DHT22;10997;52.242;8.168;2022-10-22T03:09:32;12.20;99.90
21672;DHT22;10997;52.242;8.168;2022-10-22T03:14:35;12.10;99.90
21672;DHT22;10997;52.242;8.168;2022-10-22T03:19:35;12.00;99.90
21672;DHT22;10997;52.242;8.168;2022-10-22T03:24:41;11.80;99.90
21672;DHT22;10997;52.242;8.168;2022-10-22T03:29:43;11.80;99.90
21672;DHT22;10997;52.242;8.168;2022-10-22T03:34:44;11.60;99.90
21672;DHT22;10997;52.242;8.168;2022-10-22T03:39:45;11.50;99.90
21672;DHT22;10997;52.242;8.168;2022-10-22T03:44:46;11.40;99.90
21672;DHT22;10997;52.242;8.168;2022-10-22T03:49:47;11.20;99.90
21672;DHT22;10997;52.242;8.168;2022-10-22T03:54:47;11.10;99.90
21672;DHT22;10997;52.242;8.168;2022-10-22T03:59:48;11.10;99.90
21672;DHT22;10997;52.242;8.168;2022-10-22T04:04:50;11.10;99.90
21672;DHT22;10997;52.242;8.168;2022-10-22T04:09:51;11.20;99.90
21672;DHT22;10997;52.242;8.168;2022-10-22T04:14:51;11.30;99.90
21672;DHT22;10997;52.242;8.168;2022-10-22T04:19:52;10.90;99.90
21672;DHT22;10997;52.242;8.168;2022-10-22T04:24:53;10.70;99.90
21672;DHT22;10997;52.242;8.168;2022-10-22T04:29:53;10.50;99.90
21672;DHT22;10997;52.242;8.168;2022-10-22T04:34:54;10.40;99.90
21672;DHT22;10997;52.242;8.168;2022-10-22T04:39:55;10.60;99.90
21672;DHT22;10997;52.242;8.168;2022-10-22T04:44:55;10.80;99.90
21672;DHT22;10997;52.242;8.168;2022-10-22T04:49:56;10.80;99.90
21672;DHT22;10997;52.242;8.168;2022-10-22T04:54:57;10.70;99.90
21672;DHT22;10997;52.242;8.168;2022-10-22T04:59:57;10.70;99.90
21672;DHT22;10997;52.242;8.168;2022-10-22T05:04:58;10.60;99.90
21672;DHT22;10997;52.242;8.168;2022-10-22T05:09:59;10.60;99.90
21672;DHT22;10997;52.242;8.168;2022-10-22T05:15:01;10.40;99.90
21672;DHT22;10997;52.242;8.168;2022-10-22T05:20:03;10.20;99.90
21672;DHT22;10997;52.242;8.168;2022-10-22T05:25:05;10.20;99.90
21672;DHT22;10997;52.242;8.168;2022-10-22T05:30:06;10.10;99.90
21672;DHT22;10997;52.242;8.168;2022-10-22T05:35:07;10.00;99.90
21672;DHT22;10997;52.242;8.168;2022-10-22T05:40:08;9.90;99.90
21672;DHT22;10997;52.242;8.168;2022-10-22T05:45:09;9.80;99.90
21672;DHT22;10997;52.242;8.168;2022-10-22T05:50:10;9.80;99.90
21672;DHT22;10997;52.242;8.168;2022-10-22T05:55:10;9.70;99.90
21672;DHT22;10997;52.242;8.168;2022-10-22T06:00:11;9.70;99.90
21672;DHT22;10997;52.242;8.168;2022-10-22T06:05:12;9.60;99.90
21672;DHT22;10997;52.242;8.168;2022-10-22T06:10:16;9.60;99.90
21672;DHT22;10997;52.242;8.168;2022-10-22T06:15:21;9.50;99.90
21672;DHT22;10997;52.242;8.168;2022-10-22T06:20:25;9.40;99.90
21672;DHT22;10997;52.242;8.168;2022-10-22T06:25:28;9.50;99.90
21672;DHT22;10997;52.242;8.168;2022-10-22T06:30:29;9.50;99.90
21672;DHT22;10997;52.242;8.168;2022-10-22T06:35:30;9.50;99.90
21672;DHT22;10997;52.242;8.168;2022-10-22T06:40:32;9.60;99.90
21672;DHT22;10997;52.242;8.168;2022-10-22T06:45:33;9.70;99.90
21672;DHT22;10997;52.242;8.168;2022-10-22T06:50:34;10.00;99.90
21672;DHT22;10997;52.242;8.168;2022-10-22T06:55:37;10.50;99.90
21672;DHT22;10997;52.242;8.168;2022-10-22T07:01:09;10.60;99.90
21672;DHT22;10997;52.242;8.168;2022-10-22T07:06:16;11.00;99.90
21672;DHT22;10997;52.242;8.168;2022-10-22T07:11:24;11.60;99.90
21672;DHT22;10997;52.242;8.168;2022-10-22T07:16:24;11.90;99.90
21672;DHT22;10997;52.242;8.168;2022-10-22T07:21:25;12.20;99.90
21672;DHT22;10997;52.242;8.168;2022-10-22T07:26:26;12.40;99.90
21672;DHT22;10997;52.242;8.168;2022-10-22T07:31:30;12.70;99.90
21672;DHT22;10997;52.242;8.168;2022-10-22T07:36:30;12.80;99.90
21672;DHT22;10997;52.242;8.168;2022-10-22T07:41:31;13.20;99.90
21672;DHT22;10997;52.242;8.168;2022-10-22T07:46:38;13.40;99.90
21672;DHT22;10997;52.242;8.168;2022-10-22T07:51:39;13.60;99.90
21672;DHT22;10997;52.242;8.168;2022-10-22T07:56:39;13.80;99.90
21672;DHT22;10997;52.242;8.168;2022-10-22T08:01:40;13.90;99.90
21672;DHT22;10997;52.242;8.168;2022-10-22T08:06:41;14.10;99.90
21672;DHT22;10997;52.242;8.168;2022-10-22T08:11:41;14.40;99.90
21672;DHT22;10997;52.242;8.168;2022-10-22T08:16:42;14.60;99.90
21672;DHT22;10997;52.242;8.168;2022-10-22T08:21:44;14.80;99.90
21672;DHT22;10997;52.242;8.168;2022-10-22T08:26:45;14.90;99.90
21672;DHT22;10997;52.242;8.168;2022-10-22T08:31:48;15.10;99.90
21672;DHT22;10997;52.242;8.168;2022-10-22T08:36:49;15.20;99.90
21672;DHT22;10997;52.242;8.168;2022-10-22T08:47:31;15.20;99.90
21672;DHT22;10997;52.242;8.168;2022-10-22T08:52:38;15.30;99.90
21672;DHT22;10997;52.242;8.168;2022-10-22T08:57:48;15.40;99.90
21672;DHT22;10997;52.242;8.168;2022-10-22T09:07:56;15.70;99.90
21672;DHT22;10997;52.242;8.168;2022-10-22T09:12:57;15.80;99.90
21672;DHT22;10997;52.242;8.168;2022-10-22T09:18:36;15.90;99.90
21672;DHT22;10997;52.242;8.168;2022-10-22T09:24:00;15.90;99.90
21672;DHT22;10997;52.242;8.168;2022-10-22T09:29:02;16.20;99.90
21672;DHT22;10997;52.242;8.168;2022-10-22T09:34:03;16.20;99.90
21672;DHT22;10997;52.242;8.168;2022-10-22T09:39:32;16.40;99.90
21672;DHT22;10997;52.242;8.168;2022-10-22T09:44:35;16.30;99.90
21672;DHT22;10997;52.242;8.168;2022-10-22T09:49:36;16.30;99.90
21672;DHT22;10997;52.242;8.168;2022-10-22T09:54:41;16.30;99.90
21672;DHT22;10997;52.242;8.168;2022-10-22T09:59:43;16.50;99.90
21672;DHT22;10997;52.242;8.168;2022-10-22T10:04:53;16.70;99.90
21672;DHT22;10997;52.242;8.168;2022-10-22T10:09:54;16.70;99.90
21672;DHT22;10997;52.242;8.168;2022-10-22T10:21:25;16.60;99.90
21672;DHT22;10997;52.242;8.168;2022-10-22T10:41:57;16.90;99.90
21672;DHT22;10997;52.242;8.168;2022-10-22T10:58:38;17.30;99.90
21672;DHT22;10997;52.242;8.168;2022-10-22T11:09:32;17.00;99.90
21672;DHT22;10997;52.242;8.168;2022-10-22T11:25:26;16.90;99.90
21672;DHT22;10997;52.242;8.168;2022-10-22T11:30:33;16.90;99.90
21672;DHT22;10997;52.242;8.168;2022-10-22T11:35:39;17.00;99.90
21672;DHT22;10997;52.242;8.168;2022-10-22T11:41:00;16.90;99.90
21672;DHT22;10997;52.242;8.168;2022-10-22T11:46:24;16.90;99.90
21672;DHT22;10997;52.242;8.168;2022-10-22T11:56:37;17.20;99.90
21672;DHT22;10997;52.242;8.168;2022-10-22T12:01:42;17.20;99.90
21672;DHT22;10997;52.242;8.168;2022-10-22T12:06:59;17.10;99.90
21672;DHT22;10997;52.242;8.168;2022-10-22T12:12:12;17.30;99.90
21672;DHT22;10997;52.242;8.168;2022-10-22T12:17:14;17.40;99.90
21672;DHT22;10997;52.242;8.168;2022-10-22T12:22:24;17.50;99.90
21672;DHT22;10997;52.242;8.168;2022-10-22T12:32:38;17.40;99.90
21672;DHT22;10997;52.242;8.168;2022-10-22T12:37:40;17.40;99.90
21672;DHT22;10997;52.242;8.168;2022-10-22T12:42:53;17.30;99.90
21672;DHT22;10997;52.242;8.168;2022-10-22T12:48:00;17.30;99.90
21672;DHT22;10997;52.242;8.168;2022-10-22T12:53:01;17.10;99.90
21672;DHT22;10997;52.242;8.168;2022-10-22T12:58:05;17.00;99.90
21672;DHT22;10997;52.242;8.168;2022-10-22T13:03:06;16.80;99.90
21672;DHT22;10997;52.242;8.168;2022-10-22T13:08:15;16.60;99.90
21672;DHT22;10997;52.242;8.168;2022-10-22T13:13:51;16.50;99.90
21672;DHT22;10997;52.242;8.168;2022-10-22T13:19:00;16.60;99.90
21672;DHT22;10997;52.242;8.168;2022-10-22T13:24:21;16.60;99.90
21672;DHT22;10997;52.242;8.168;2022-10-22T13:29:23;16.70;99.90
21672;DHT22;10997;52.242;8.168;2022-10-22T13:34:25;16.70;99.90
21672;DHT22;10997;52.242;8.168;2022-10-22T13:39:26;16.30;99.90
21672;DHT22;10997;52.242;8.168;2022-10-22T13:44:26;16.00;99.90
21672;DHT22;10997;52.242;8.168;2022-10-22T13:49:27;15.90;99.90
21672;DHT22;10997;52.242;8.168;2022-10-22T13:54:28;15.90;99.90
21672;DHT22;10997;52.242;8.168;2022-10-22T13:59:28;16.00;99.90
21672;DHT22;10997;52.242;8.168;2022-10-22T14:04:29;16.20;99.90
21672;DHT22;10997;52.242;8.168;2022-10-22T14:09:30;16.10;99.90
21672;DHT22;10997;52.242;8.168;2022-10-22T14:14:30;16.20;99.90
21672;DHT22;10997;52.242;8.168;2022-10-22T14:19:31;16.30;99.90
21672;DHT22;10997;52.242;8.168;2022-10-22T14:24:32;16.50;99.90
21672;DHT22;10997;52.242;8.168;2022-10-22T14:29:32;16.60;99.90
21672;DHT22;10997;52.242;8.168;2022-10-22T14:34:33;16.70;99.90
21672;DHT22;10997;52.242;8.168;2022-10-22T14:39:34;16.70;99.90
21672;DHT22;10997;52.242;8.168;2022-10-22T14:44:35;16.60;99.90
21672;DHT22;10997;52.242;8.168;2022-10-22T14:49:36;16.50;99.90
21672;DHT22;10997;52.242;8.168;2022-10-22T14:54:36;16.40;99.90
21672;DHT22;10997;52.242;8.168;2022-10-22T14:59:37;16.30;99.90
21672;DHT22;10997;52.242;8.168;2022-10-22T15:04:38;16.20;99.90
21672;DHT22;10997;52.242;8.168;2022-10-22T15:09:39;16.10;99.90
21672;DHT22;10997;52.242;8.168;2022-10-22T15:14:40;16.00;99.90
21672;DHT22;10997;52.242;8.168;2022-10-22T15:19:41;15.90;99.90
21672;DHT22;10997;52.242;8.168;2022-10-22T15:24:43;15.90;99.90
21672;DHT22;10997;52.242;8.168;2022-10-22T15:29:44;15.80;99.90
21672;DHT22;10997;52.242;8.168;2022-10-22T15:34:44;15.80;99.90
21672;DHT22;10997;52.242;8.168;2022-10-22T15:39:45;15.70;99.90
21672;DHT22;10997;52.242;8.168;2022-10-22T15:44:46;15.70;99.90
21672;DHT22;10997;52.242;8.168;2022-10-22T15:49:46;15.70;99.90
21672;DHT22;10997;52.242;8.168;2022-10-22T15:54:47;15.60;99.90
21672;DHT22;10997;52.242;8.168;2022-10-22T15:59:48;15.50;99.90
21672;DHT22;10997;52.242;8.168;2022-10-22T16:04:51;15.30;99.90
21672;DHT22;10997;52.242;8.168;2022-10-22T16:09:58;15.10;99.90
21672;DHT22;10997;52.242;8.168;2022-10-22T16:15:01;14.90;99.90
21672;DHT22;10997;52.242;8.168;2022-10-22T16:20:02;14.80;99.90
21672;DHT22;10997;52.242;8.168;2022-10-22T16:25:03;14.70;99.90
21672;DHT22;10997;52.242;8.168;2022-10-22T16:30:05;14.50;99.90
21672;DHT22;10997;52.242;8.168;2022-10-22T16:35:06;14.40;99.90
21672;DHT22;10997;52.242;8.168;2022-10-22T16:40:08;14.40;99.90
21672;DHT22;10997;52.242;8.168;2022-10-22T16:45:10;14.30;99.90
21672;DHT22;10997;52.242;8.168;2022-10-22T16:50:10;14.20;99.90
21672;DHT22;10997;52.242;8.168;2022-10-22T16:55:11;14.00;99.90
21672;DHT22;10997;52.242;8.168;2022-10-22T17:00:12;14.00;99.90
21672;DHT22;10997;52.242;8.168;2022-10-22T17:05:16;13.90;99.90
21672;DHT22;10997;52.242;8.168;2022-10-22T17:10:18;13.80;99.90
21672;DHT22;10997;52.242;8.168;2022-10-22T17:15:21;13.70;99.90
21672;DHT22;10997;52.242;8.168;2022-10-22T17:20:21;13.70;99.90
21672;DHT22;10997;52.242;8.168;2022-10-22T17:25:59;13.60;99.90
21672;DHT22;10997;52.242;8.168;2022-10-22T17:31:10;13.60;99.90
21672;DHT22;10997;52.242;8.168;2022-10-22T17:36:15;13.50;99.90
21672;DHT22;10997;52.242;8.168;2022-10-22T17:41:19;13.40;99.90
21672;DHT22;10997;52.242;8.168;2022-10-22T17:46:22;13.30;99.90
21672;DHT22;10997;52.242;8.168;2022-10-22T17:51:25;13.30;99.90
21672;DHT22;10997;52.242;8.168;2022-10-22T17:56:27;13.20;99.90
21672;DHT22;10997;52.242;8.168;2022-10-22T18:01:32;13.20;99.90
21672;DHT22;10997;52.242;8.168;2022-10-22T18:06:34;13.10;99.90
21672;DHT22;10997;52.242;8.168;2022-10-22T18:11:35;13.00;99.90
21672;DHT22;10997;52.242;8.168;2022-10-22T18:16:36;13.00;99.90
21672;DHT22;10997;52.242;8.168;2022-10-22T18:21:37;12.90;99.90
21672;DHT22;10997;52.242;8.168;2022-10-22T18:26:38;12.90;99.90
21672;DHT22;10997;52.242;8.168;2022-10-22T18:31:38;12.80;99.90
21672;DHT22;10997;52.242;8.168;2022-10-22T18:36:40;12.80;99.90
21672;DHT22;10997;52.242;8.168;2022-10-22T18:41:40;12.80;99.90
21672;DHT22;10997;52.242;8.168;2022-10-22T18:46:41;12.70;99.90
21672;DHT22;10997;52.242;8.168;2022-10-22T18:51:43;12.60;99.90
21672;DHT22;10997;52.242;8.168;2022-10-22T18:56:44;12.60;99.90
21672;DHT22;10997;52.242;8.168;2022-10-22T19:01:45;12.50;99.90
21672;DHT22;10997;52.242;8.168;2022-10-22T19:06:46;12.50;99.90
21672;DHT22;10997;52.242;8.168;2022-10-22T19:11:50;12.50;99.90
21672;DHT22;10997;52.242;8.168;2022-10-22T19:16:50;12.40;99.90
21672;DHT22;10997;52.242;8.168;2022-10-22T19:21:51;12.40;99.90
21672;DHT22;10997;52.242;8.168;2022-10-22T19:26:52;12.40;99.90
21672;DHT22;10997;52.242;8.168;2022-10-22T19:31:53;12.30;99.90
21672;DHT22;10997;52.242;8.168;2022-10-22T19:36:53;12.20;99.90
21672;DHT22;10997;52.242;8.168;2022-10-22T19:41:54;12.10;99.90
21672;DHT22;10997;52.242;8.168;2022-10-22T19:46:55;12.10;99.90
21672;DHT22;10997;52.242;8.168;2022-10-22T19:51:55;12.20;99.90
21672;DHT22;10997;52.242;8.168;2022-10-22T19:56:56;12.20;99.90
21672;DHT22;10997;52.242;8.168;2022-10-22T20:01:57;12.20;99.90
21672;DHT22;10997;52.242;8.168;2022-10-22T20:06:57;12.10;99.90
21672;DHT22;10997;52.242;8.168;2022-10-22T20:11:58;12.10;99.90
21672;DHT22;10997;52.242;8.168;2022-10-22T20:16:59;11.90;99.90
21672;DHT22;10997;52.242;8.168;2022-10-22T20:21:59;11.80;99.90
21672;DHT22;10997;52.242;8.168;2022-10-22T20:27:00;11.70;99.90
21672;DHT22;10997;52.242;8.168;2022-10-22T20:32:01;11.70;99.90
21672;DHT22;10997;52.242;8.168;2022-10-22T20:37:01;11.60;99.90
21672;DHT22;10997;52.242;8.168;2022-10-22T20:42:02;11.50;99.90
21672;DHT22;10997;52.242;8.168;2022-10-22T20:47:03;11.40;99.90
21672;DHT22;10997;52.242;8.168;2022-10-22T20:52:04;11.30;99.90
21672;DHT22;10997;52.242;8.168;2022-10-22T20:57:04;11.20;99.90
21672;DHT22;10997;52.242;8.168;2022-10-22T21:02:06;11.00;99.90
21672;DHT22;10997;52.242;8.168;2022-10-22T21:07:08;10.80;99.90
21672;DHT22;10997;52.242;8.168;2022-10-22T21:12:08;10.70;99.90
21672;DHT22;10997;52.242;8.168;2022-10-22T21:17:09;10.80;99.90
21672;DHT22;10997;52.242;8.168;2022-10-22T21:22:10;10.90;99.90
21672;DHT22;10997;52.242;8.168;2022-10-22T21:27:10;11.00;99.90
21672;DHT22;10997;52.242;8.168;2022-10-22T21:32:11;10.90;99.90
21672;DHT22;10997;52.242;8.168;2022-10-22T21:37:12;10.80;99.90
21672;DHT22;10997;52.242;8.168;2022-10-22T21:42:16;10.30;99.90
21672;DHT22;10997;52.242;8.168;2022-10-22T21:47:16;10.20;99.90
21672;DHT22;10997;52.242;8.168;2022-10-22T21:52:17;10.00;99.90
21672;DHT22;10997;52.242;8.168;2022-10-22T21:57:18;10.00;99.90
21672;DHT22;10997;52.242;8.168;2022-10-22T22:02:18;10.00;99.90
21672;DHT22;10997;52.242;8.168;2022-10-22T22:07:20;10.00;99.90
21672;DHT22;10997;52.242;8.168;2022-10-22T22:12:21;10.10;99.90
21672;DHT22;10997;52.242;8.168;2022-10-22T22:17:22;10.20;99.90
21672;DHT22;10997;52.242;8.168;2022-10-22T22:22:22;10.20;99.90
21672;DHT22;10997;52.242;8.168;2022-10-22T22:27:24;10.20;99.90
21672;DHT22;10997;52.242;8.168;2022-10-22T22:32:24;10.10;99.90
21672;DHT22;10997;52.242;8.168;2022-10-22T22:37:25;10.20;99.90
21672;DHT22;10997;52.242;8.168;2022-10-22T22:42:26;10.20;99.90
21672;DHT22;10997;52.242;8.168;2022-10-22T22:47:28;10.20;99.90
21672;DHT22;10997;52.242;8.168;2022-10-22T22:52:29;10.00;99.90
21672;DHT22;10997;52.242;8.168;2022-10-22T22:57:30;9.80;99.90
21672;DHT22;10997;52.242;8.168;2022-10-22T23:02:30;9.70;99.90
21672;DHT22;10997;52.242;8.168;2022-10-22T23:07:31;9.70;99.90
21672;DHT22;10997;52.242;8.168;2022-10-22T23:12:32;9.80;99.90
21672;DHT22;10997;52.242;8.168;2022-10-22T23:17:32;9.80;99.90
21672;DHT22;10997;52.242;8.168;2022-10-22T23:22:33;9.80;99.90
21672;DHT22;10997;52.242;8.168;2022-10-22T23:27:34;9.80;99.90
21672;DHT22;10997;52.242;8.168;2022-10-22T23:32:34;9.80;99.90
21672;DHT22;10997;52.242;8.168;2022-10-22T23:37:36;9.80;99.90
21672;DHT22;10997;52.242;8.168;2022-10-22T23:42:37;9.90;99.90
21672;DHT22;10997;52.242;8.168;2022-10-22T23:47:37;9.90;99.90
21672;DHT22;10997;52.242;8.168;2022-10-22T23:52:41;9.90;99.90
21672;DHT22;10997;52.242;8.168;2022-10-22T23:57:42;9.90;99.90
